메인 페이지
METAR-TAF:

METAR-TAF

공항 :

심페로폴 국제공항

심페로폴, 러시아

위도: 45-03-08N, 경도: 033-58-31E, 고도: 195m

현재 날씨관측

예보는 21분 전, 14:00시(UTC)에 발표되었습니다.
여러 방향의 바람 2kt
온도 13°C
습도 62%
기압 1006 hPa
시정 10km 이상
1500m 미만 상공 구름 및 적란운 없음

METAR: URFF 141400Z VRB01MPS CAVOK 13/06 Q1006 R19/290295 NOSIG

시각: 17:21 (14:21 UTC)

예보

예보는 3 시간 30분 전, 10:51시(UTC)에 발표되었습니다.
예보 대상 시간: 14일 12시부터 15일 12시까지 (UTC)
6kt
시정 10km 이상
고도 1600ft 상공 구름 많음
고도 2000ft 상공 구름 많음, 적란운.
약한소나기
14일 1500시부터 (UTC)
6kt
시정: 3100m
고도 1100ft 상공 구름 많음
고도 2000ft 상공 구름 보통, 적란운.
박무
확률 40% :
일시적
14일 18시부터 15일 06시까지 (UTC)
시정: 0400m
고도 200ft 상공 흐림
고도 2000ft 상공 구름 보통, 적란운.
안개
전환 중
15일 06시부터 15일 08시까지 (UTC)
서남서12kt, 순간 최대 풍속 21kt

TAF: URFF 141051Z 1412/1512 10003MPS 9999 -SHRA BKN016 BKN020CB TX14/1412Z TN04/1504Z FM141500 17003MPS 3100 BR BKN011 SCT020CB PROB40 TEMPO 1418/1506 0400 FG OVC002 SCT020CB BECMG 1506/1508 25006G11MPS

4,000개 이상의 공항 관측 자료 및 예보 (METAR 및 TAF 보고).

지도상에서 검색 가능한 기상관측소가 노란 점과 빨간 점으로 표시되어 있습니다.

기상관측소 명을 보려면 표시 위로 마우스를 이동하세요.

날씨 관측과 예보를 보려면 클릭하세요.

지도 변경 : 확대하려면 엑스 표시가 있는 녹색 버튼, 축소하려면 빼기 표시가 있는 녹색 버튼, 다음 페이지의 지도를 보려면 녹색 화살표를 클릭하세요.


METAR-TAF: